Columbiana, Alabama
Current Conditions -  °F | °C
As of 6:20 AM on Monday 24 Nov 2014 (Local Time) from KEET Reporting Station
Broken Clouds Broken Clouds  
Wind Chill: 65°   Ceiling: 2000
Heat Index: 65°   Visibility: 10mi
Dew Point: 61°   Wind: 12mph
Humidity: 87%   Direction: 200°SSW
Pressure: 29.75"   Gusts: 22mph
Location:  33.18°N, 86.61°W
Report Text: KEET 241220Z AUTO 20010G19KT 160V230 10SM FEW009 SCT012 BKN020 18/16 A2975 RMK AO2 T01830161
Loading
Personal Weather Stations






























Interactive Weather Map New forecast layout! Learn more

10-Day Weather Forecast

Advertisements
Track Severe Weather on mobile